Station Historical Data
Daily Summary for May 21, 2012 Units:  Metric    English   Both
« Previous Day
Next Day »
Daily Weekly Monthly Yearly Custom
  High: Low: Average:
Temperature: 26.3 °C 15.5 °C 21 °C
Dew Point: 19.7 °C 14.6 °C 17.2 °C
Humidity: 94% 55% 80%
Wind Speed: 54.7km/h 0km/h 5.1km/h
Wind Gust: 54.7km/h - -
Wind- - SW
Pressure: 1017.2 hPa 1012.4 hPa -
Precipitation: 26.42 mm    
Historical Graphs
 
 
Tabular Data for May 21, 2012
Time Temperature Dew Point Pressure Wind Wind Speed Wind Gust Humidity Rainfall Rate (Hourly) Conditions
00:00 20.2 °C 18.2 °C 1016.1 hPa ENE 1.6 km/h 1.6 km/h 88% 0 mm
00:01 20.3 °C 18.2 °C 1016.1 hPa East 1.6 km/h 1.6 km/h 88% 0 mm
00:06 20.5 °C 18.3 °C 1016.1 hPa Calm   1.6 km/h 87% 0 mm
00:11 20.7 °C 18.2 °C 1016.1 hPa Calm   1.6 km/h 86% 0 mm
00:16 20.6 °C 17.9 °C 1016.1 hPa East 1.6 km/h 1.6 km/h 85% 0 mm
00:21 20.8 °C 18.1 °C 1016.1 hPa Calm   1.6 km/h 84% 0 mm
00:26 20.8 °C 18 °C 1015.8 hPa ESE 1.6 km/h 1.6 km/h 84% 0 mm
00:31 20.6 °C 17.8 °C 1015.8 hPa ESE 1.6 km/h 3.2 km/h 84% 0 mm
00:36 20.8 °C 17.8 °C 1016.1 hPa ESE 1.6 km/h 3.2 km/h 83% 0 mm
00:41 20.9 °C 17.9 °C 1016.1 hPa Calm   1.6 km/h 83% 0 mm
00:46 20.8 °C 17.8 °C 1016.1 hPa Calm     83% 0 mm
00:51 19.9 °C 17.5 °C 1016.1 hPa Calm   3.2 km/h 86% 0 mm
00:56 19.6 °C 17.7 °C 1016.1 hPa Calm     89% 0 mm
01:01 19.4 °C 17.8 °C 1016.1 hPa Calm     90% 0 mm
01:06 19.3 °C 17.7 °C 1016.1 hPa Calm     90% 0 mm
01:12 19.2 °C 17.5 °C 1016.1 hPa Calm     90% 0 mm
01:17 19.1 °C 17.6 °C 1016.1 hPa Calm   1.6 km/h 91% 0 mm
01:18 19.1 °C 17.6 °C 1016.1 hPa Calm     91% 0 mm
01:23 18.9 °C 17.4 °C 1016.1 hPa NW 16.1 km/h 16.1 km/h 91% 0 mm
01:28 19.4 °C 17.6 °C 1016.1 hPa WNW 6.4 km/h 16.1 km/h 89% 0 mm
01:33 19.9 °C 17.7 °C 1016.5 hPa NNW 4.8 km/h 8 km/h 87% 0 mm
01:38 20.3 °C 17.7 °C 1016.5 hPa NW 12.9 km/h 20.9 km/h 85% 0 mm
01:43 20.6 °C 17.8 °C 1016.8 hPa NW 19.3 km/h 24.1 km/h 84% 0 mm
01:48 20.7 °C 17.6 °C 1016.8 hPa NNW 12.9 km/h 20.9 km/h 82% 0 mm
01:53 20.7 °C 17.3 °C 1016.8 hPa WNW 9.7 km/h 19.3 km/h 81% 0 mm
01:58 20.7 °C 17.2 °C 1016.8 hPa WNW 16.1 km/h 16.1 km/h 80% 0 mm
02:03 20.6 °C 17.2 °C 1016.8 hPa NNW 12.9 km/h 14.5 km/h 81% 0 mm
02:08 20.4 °C 17.3 °C 1016.8 hPa NNW 9.7 km/h 16.1 km/h 82% 0 mm
02:13 20.3 °C 17.1 °C 1016.8 hPa WNW 11.3 km/h 11.3 km/h 82% 0 mm
02:14 20.3 °C 17.3 °C 1016.8 hPa NW 6.4 km/h 11.3 km/h 83% 0 mm
02:19 20.1 °C 17.3 °C 1016.8 hPa NW 8 km/h 9.7 km/h 84% 0 mm
02:24 19.9 °C 16.8 °C 1016.8 hPa NNW 8 km/h 17.7 km/h 82% 0 mm
02:29 19.6 °C 16.8 °C 1017.2 hPa NW 6.4 km/h 12.9 km/h 84% 0 mm
02:34 19.3 °C 16.8 °C 1016.8 hPa NW 6.4 km/h 9.7 km/h 85% 0 mm
02:40 19.1 °C 16.7 °C 1016.8 hPa WNW 8 km/h 9.7 km/h 86% 0 mm
02:45 18.7 °C 16.5 °C 1016.5 hPa NW 6.4 km/h 14.5 km/h 87% 0 mm
02:50 18.6 °C 16.6 °C 1016.5 hPa NW 8 km/h 9.7 km/h 88% 0 mm
02:55 18.4 °C 16.4 °C 1016.5 hPa NNW 11.3 km/h 14.5 km/h 88% 0 mm
03:00 18.4 °C 16.4 °C 1016.1 hPa North 4.8 km/h 12.9 km/h 88% 0 mm
03:05 18.4 °C 16.4 °C 1016.1 hPa NNW 8 km/h 12.9 km/h 88% 0 mm
03:10 18.3 °C 16.3 °C 1015.8 hPa North 9.7 km/h 11.3 km/h 88% 0 mm
03:15 18.3 °C 16.4 °C 1015.8 hPa NNW 4.8 km/h 11.3 km/h 89% 0 mm
03:20 18.2 °C 16.3 °C 1015.5 hPa NE 6.4 km/h 17.7 km/h 89% 0 mm
03:25 18.1 °C 16.2 °C 1015.5 hPa NNW 9.7 km/h 17.7 km/h 89% 0 mm
03:30 17.9 °C 16.2 °C 1015.8 hPa SE 1.6 km/h 6.4 km/h 90% 0 mm
03:35 17.8 °C 16.3 °C 1015.8 hPa NNE 3.2 km/h 4.8 km/h 91% 0 mm
03:40 17.7 °C 16.2 °C 1015.8 hPa NNW 3.2 km/h 8 km/h 91% 0 mm
03:46 17.7 °C 16.2 °C 1015.8 hPa NW 6.4 km/h 8 km/h 91% 0 mm
03:51 17.6 °C 16.1 °C 1015.8 hPa NNW 1.6 km/h 6.4 km/h 91% 0 mm
03:56 17.6 °C 16.1 °C 1015.8 hPa North 1.6 km/h 6.4 km/h 91% 0 mm
04:01 17.4 °C 15.9 °C 1015.5 hPa North 3.2 km/h 4.8 km/h 91% 0 mm
04:06 17.4 °C 16.1 °C 1015.5 hPa NNW 1.6 km/h 4.8 km/h 92% 0 mm
04:11 17.3 °C 16 °C 1015.5 hPa NW 3.2 km/h 4.8 km/h 92% 0 mm
04:16 17.3 °C 15.9 °C 1015.5 hPa NE 1.6 km/h 3.2 km/h 92% 0 mm
04:21 17.2 °C 15.9 °C 1015.5 hPa NE 4.8 km/h 4.8 km/h 92% 0 mm
04:26 17.2 °C 15.9 °C 1015.5 hPa Calm   1.6 km/h 92% 0 mm
04:31 17.2 °C 15.8 °C 1015.1 hPa Calm   1.6 km/h 92% 0 mm
04:36 17.2 °C 15.9 °C 1015.1 hPa Calm   1.6 km/h 92% 0 mm
04:41 17.2 °C 15.9 °C 1015.1 hPa East 1.6 km/h 1.6 km/h 92% 0 mm
04:46 17.3 °C 15.9 °C 1015.1 hPa NNE 1.6 km/h 4.8 km/h 92% 0 mm
04:51 17.3 °C 16 °C 1014.8 hPa NE 1.6 km/h 1.6 km/h 92% 0 mm
04:56 17.4 °C 16.1 °C 1014.8 hPa NE 1.6 km/h 1.6 km/h 92% 0 mm
05:01 17.4 °C 16.1 °C 1015.1 hPa NE 1.6 km/h 3.2 km/h 92% 0 mm
05:06 17.4 °C 15.9 °C 1014.8 hPa Calm   1.6 km/h 91% 0 mm
05:11 17.4 °C 15.9 °C 1014.8 hPa Calm   1.6 km/h 91% 0 mm
05:16 17.4 °C 15.9 °C 1014.8 hPa Calm     91% 0 mm
05:21 17.3 °C 16 °C 1015.1 hPa Calm     92% 0 mm
05:26 17.3 °C 16 °C 1015.1 hPa West 3.2 km/h 3.2 km/h 92% 0 mm
05:31 17.3 °C 15.9 °C 1015.1 hPa West 1.6 km/h 3.2 km/h 92% 0 mm
05:37 17.2 °C 16.1 °C 1015.1 hPa SW 1.6 km/h 4.8 km/h 93% 0 mm
05:41 17.2 °C 16 °C 1015.1 hPa WSW 4.8 km/h 6.4 km/h 93% 0 mm
05:47 17.1 °C 16 °C 1015.1 hPa SW 3.2 km/h 8 km/h 93% 0 mm
05:52 17.1 °C 15.9 °C 1015.1 hPa SE 1.6 km/h 4.8 km/h 93% 0 mm
05:57 17 °C 15.8 °C 1015.1 hPa SW 6.4 km/h 6.4 km/h 93% 0 mm
06:02 16.9 °C 15.8 °C 1015.5 hPa SW 11.3 km/h 11.3 km/h 93% 0 mm
06:07 16.9 °C 15.7 °C 1015.5 hPa WSW 3.2 km/h 8 km/h 93% 0 mm
06:12 16.9 °C 15.9 °C 1015.8 hPa WNW 3.2 km/h 6.4 km/h 94% 0 mm
06:17 16.9 °C 15.9 °C 1015.8 hPa WNW 1.6 km/h 4.8 km/h 94% 0 mm
06:18 16.9 °C 15.9 °C 1015.8 hPa NW 1.6 km/h 4.8 km/h 94% 0 mm
06:23 16.8 °C 15.9 °C 1015.5 hPa Calm   3.2 km/h 94% 0 mm
06:28 16.8 °C 15.8 °C 1015.8 hPa West 1.6 km/h 1.6 km/h 94% 0 mm
06:33 16.8 °C 15.8 °C 1015.8 hPa Calm     94% 0 mm
06:38 16.8 °C 15.8 °C 1015.8 hPa Calm     94% 0 mm
06:43 16.8 °C 15.8 °C 1016.1 hPa Calm     94% 0 mm
06:48 16.8 °C 15.8 °C 1016.1 hPa Calm     94% 0 mm
06:53 16.8 °C 15.8 °C 1016.1 hPa NE 3.2 km/h 6.4 km/h 94% 0 mm
06:58 16.8 °C 15.9 °C 1016.1 hPa NE 3.2 km/h 6.4 km/h 94% 0 mm
07:03 16.9 °C 15.9 °C 1016.5 hPa Calm   4.8 km/h 94% 0 mm
07:08 16.9 °C 16 °C 1016.5 hPa East 4.8 km/h 6.4 km/h 94% 0 mm
07:13 17 °C 16 °C 1016.1 hPa Calm   6.4 km/h 94% 0 mm
07:18 17 °C 16 °C 1016.5 hPa Calm   1.6 km/h 94% 0 mm
07:23 17 °C 16 °C 1016.1 hPa ESE 4.8 km/h 4.8 km/h 94% 0 mm
07:28 17.1 °C 16.1 °C 1016.1 hPa NNE 4.8 km/h 4.8 km/h 94% 0 mm
07:33 17.1 °C 16.1 °C 1016.1 hPa ENE 3.2 km/h 3.2 km/h 94% 0 mm
07:38 17.2 °C 16.2 °C 1016.1 hPa NNW 1.6 km/h 3.2 km/h 94% 0 mm
07:43 17.2 °C 16.2 °C 1016.5 hPa North 3.2 km/h 3.2 km/h 94% 0 mm
07:48 17.2 °C 16.1 °C 1016.5 hPa NNW 1.6 km/h 3.2 km/h 93% 0 mm
07:53 17.2 °C 16.1 °C 1016.5 hPa NE 1.6 km/h 4.8 km/h 93% 0 mm
07:58 17.2 °C 16.1 °C 1016.5 hPa Calm   3.2 km/h 93% 0 mm
08:04 17.3 °C 16.1 °C 1016.5 hPa Calm   1.6 km/h 93% 0 mm
08:09 17.3 °C 16.2 °C 1016.5 hPa Calm     93% 0 mm
08:14 17.4 °C 16.3 °C 1016.5 hPa NE 3.2 km/h 4.8 km/h 93% 0 mm
08:19 17.5 °C 16.3 °C 1016.5 hPa NNW 1.6 km/h 4.8 km/h 93% 0 mm
08:24 17.6 °C 16.4 °C 1016.8 hPa Calm   1.6 km/h 93% 0 mm
08:29 17.6 °C 16.4 °C 1017.2 hPa SW 6.4 km/h 8 km/h 93% 0 mm
08:34 17.7 °C 16.5 °C 1017.2 hPa West 3.2 km/h 8 km/h 93% 0 mm
08:39 17.7 °C 16.5 °C 1017.2 hPa WSW 1.6 km/h 6.4 km/h 93% 0 mm
08:44 17.7 °C 16.5 °C 1017.2 hPa West 1.6 km/h 3.2 km/h 93% 0 mm
08:49 17.6 °C 16.4 °C 1017.2 hPa West 3.2 km/h 3.2 km/h 93% 0 mm
08:54 17.7 °C 16.5 °C 1017.2 hPa WSW 4.8 km/h 4.8 km/h 93% 0 mm
08:59 17.7 °C 16.6 °C 1017.2 hPa West 1.6 km/h 1.6 km/h 93% 0 mm
09:04 17.8 °C 16.6 °C 1017.2 hPa Calm   1.6 km/h 93% 0 mm
09:09 17.9 °C 16.7 °C 1017.2 hPa WSW 1.6 km/h 1.6 km/h 93% 0 mm
09:14 18.1 °C 16.9 °C 1017.2 hPa WNW 3.2 km/h 3.2 km/h 93% 0 mm
09:19 18.1 °C 16.9 °C 1017.2 hPa WSW 1.6 km/h 3.2 km/h 93% 0 mm
09:24 18.3 °C 17.1 °C 1017.2 hPa Calm   3.2 km/h 93% 0 mm
09:29 18.5 °C 17.2 °C 1017.2 hPa Calm   3.2 km/h 92% 0 mm
09:34 18.8 °C 17.4 °C 1017.2 hPa Calm     92% 0 mm
09:39 19.2 °C 17.9 °C 1016.8 hPa Calm   1.6 km/h 92% 0 mm
09:44 19.5 °C 17.8 °C 1016.8 hPa West 1.6 km/h 1.6 km/h 90% 0 mm
09:49 20.1 °C 18.2 °C 1017.2 hPa Calm   3.2 km/h 89% 0 mm
09:54 20.7 °C 18.7 °C 1016.8 hPa Calm   1.6 km/h 88% 0 mm
09:55 20.8 °C 18.7 °C 1017.2 hPa Calm   1.6 km/h 88% 0 mm
10:00 21.2 °C 18.7 °C 1016.8 hPa NNW 1.6 km/h 3.2 km/h 86% 0 mm
10:05 21.3 °C 18.3 °C 1016.8 hPa NE 1.6 km/h 1.6 km/h 83% 0 mm
10:10 21.4 °C 17.4 °C 1016.8 hPa Calm   4.8 km/h 78% 0 mm
10:15 21.6 °C 17.2 °C 1016.8 hPa Calm   4.8 km/h 76% 0 mm
10:20 21.7 °C 17.3 °C 1016.5 hPa NNW 1.6 km/h 6.4 km/h 76% 0 mm
10:25 21.8 °C 17.2 °C 1016.5 hPa NNE 1.6 km/h 4.8 km/h 75% 0 mm
10:30 22.1 °C 17.7 °C 1016.5 hPa North 3.2 km/h 3.2 km/h 76% 0 mm
10:35 21.9 °C 17.1 °C 1016.5 hPa WNW 4.8 km/h 4.8 km/h 74% 0 mm
10:40 21.9 °C 17.3 °C 1016.5 hPa West 1.6 km/h 3.2 km/h 75% 0 mm
10:45 22.1 °C 17.9 °C 1016.5 hPa Calm   6.4 km/h 77% 0 mm
10:51 22.4 °C 18 °C 1016.5 hPa WNW 3.2 km/h 8 km/h 76% 0 mm
10:56 22.5 °C 17.4 °C 1016.5 hPa NW 4.8 km/h 9.7 km/h 73% 0 mm
11:01 22.8 °C 17.7 °C 1016.5 hPa NE 3.2 km/h 6.4 km/h 73% 0 mm
11:06 22.8 °C 17.9 °C 1016.5 hPa NNW 4.8 km/h 8 km/h 74% 0 mm
11:11 22.9 °C 17.8 °C 1016.5 hPa NNE 6.4 km/h 8 km/h 73% 0 mm
11:16 23.1 °C 17.8 °C 1016.5 hPa North 6.4 km/h 6.4 km/h 72% 0 mm
11:21 23.3 °C 17.9 °C 1016.5 hPa WNW 4.8 km/h 4.8 km/h 72% 0 mm
11:26 23.6 °C 17.6 °C 1016.5 hPa NW 1.6 km/h 6.4 km/h 69% 0 mm
11:31 23.8 °C 18 °C 1016.5 hPa WNW 4.8 km/h 8 km/h 70% 0 mm
11:36 23.7 °C 17.4 °C 1016.5 hPa WNW 3.2 km/h 8 km/h 68% 0 mm
11:41 23.8 °C 17.1 °C 1016.5 hPa WNW 8 km/h 9.7 km/h 66% 0 mm
11:46 23.7 °C 16.3 °C 1016.5 hPa WNW 4.8 km/h 9.7 km/h 63% 0 mm
11:51 24.2 °C 17.2 °C 1016.5 hPa NNW 1.6 km/h 6.4 km/h 65% 0 mm
11:56 24.5 °C 17.2 °C 1016.5 hPa West 3.2 km/h 9.7 km/h 64% 0 mm
12:01 24.4 °C 15.6 °C 1016.5 hPa WNW 8 km/h 8 km/h 58% 0 mm
12:06 24.4 °C 15.9 °C 1016.1 hPa SW 3.2 km/h 6.4 km/h 59% 0 mm
12:11 24.3 °C 15.8 °C 1016.5 hPa Calm   9.7 km/h 59% 0 mm
12:16 24.3 °C 16.8 °C 1016.5 hPa NW 3.2 km/h 6.4 km/h 63% 0 mm
12:21 24.4 °C 16.1 °C 1016.5 hPa NE 1.6 km/h 8 km/h 60% 0 mm
12:26 24.7 °C 17.2 °C 1016.1 hPa WNW 6.4 km/h 8 km/h 63% 0 mm
12:31 24.9 °C 17.7 °C 1016.1 hPa NW 3.2 km/h 12.9 km/h 64% 0 mm
12:36 24.9 °C 16.7 °C 1016.1 hPa WSW 8 km/h 8 km/h 60% 0 mm
12:41 24.7 °C 16.2 °C 1016.1 hPa NNW 6.4 km/h 9.7 km/h 59% 0 mm
12:46 24.6 °C 16.1 °C 1016.1 hPa West 1.6 km/h 8 km/h 59% 0 mm
12:51 24.7 °C 16.4 °C 1016.1 hPa WSW 1.6 km/h 8 km/h 60% 0 mm
12:56 25 °C 16.9 °C 1016.1 hPa NW 6.4 km/h 9.7 km/h 61% 0 mm
13:01 25.3 °C 16.5 °C 1016.1 hPa Calm   4.8 km/h 58% 0 mm
13:06 25.5 °C 15.8 °C 1016.1 hPa West 12.9 km/h 14.5 km/h 55% 0 mm
13:11 25.2 °C 16.3 °C 1015.8 hPa WNW 4.8 km/h 12.9 km/h 58% 0 mm
13:16 25.2 °C 16.4 °C 1015.8 hPa NW 6.4 km/h 8 km/h 58% 0 mm
13:21 25.2 °C 17.1 °C 1015.8 hPa SW 8 km/h 9.7 km/h 61% 0 mm
13:26 25.3 °C 17.6 °C 1015.8 hPa WNW 4.8 km/h 8 km/h 62% 0 mm
13:31 25.4 °C 18.2 °C 1015.5 hPa WNW 11.3 km/h 11.3 km/h 64% 0 mm
13:36 25.6 °C 18.3 °C 1015.8 hPa North 11.3 km/h 12.9 km/h 64% 0 mm
13:41 25.6 °C 18.3 °C 1015.5 hPa NNW 9.7 km/h 12.9 km/h 64% 0 mm
13:47 25.3 °C 18.2 °C 1015.5 hPa WNW 8 km/h 11.3 km/h 65% 0 mm
13:52 25.4 °C 17.1 °C 1015.5 hPa West 11.3 km/h 14.5 km/h 60% 0 mm
13:57 25.4 °C 17.8 °C 1015.5 hPa WNW 8 km/h 14.5 km/h 63% 0 mm
14:02 25.4 °C 17.3 °C 1015.5 hPa WNW 6.4 km/h 14.5 km/h 61% 0 mm
14:07 25.3 °C 17.8 °C 1015.5 hPa WNW 6.4 km/h 11.3 km/h 63% 0 mm
14:12 25.5 °C 18.2 °C 1015.5 hPa WSW 11.3 km/h 12.9 km/h 64% 0 mm
14:17 25.7 °C 17.4 °C 1015.1 hPa West 3.2 km/h 12.9 km/h 60% 0 mm
14:22 25.6 °C 17.6 °C 1015.1 hPa WNW 11.3 km/h 14.5 km/h 61% 0 mm
14:27 25.4 °C 17.6 °C 1015.1 hPa WNW 11.3 km/h 12.9 km/h 62% 0 mm
14:32 25.7 °C 17.1 °C 1015.1 hPa WNW 6.4 km/h 14.5 km/h 59% 0 mm
14:37 25.8 °C 17.5 °C 1015.1 hPa West 6.4 km/h 14.5 km/h 60% 0 mm
14:42 25.9 °C 17.6 °C 1014.8 hPa WSW 6.4 km/h 12.9 km/h 60% 0 mm
14:47 25.9 °C 18.1 °C 1014.8 hPa WNW 8 km/h 14.5 km/h 62% 0 mm
14:52 25.8 °C 18.2 °C 1014.8 hPa WNW 4.8 km/h 11.3 km/h 63% 0 mm
14:57 26 °C 17.9 °C 1014.8 hPa WNW 9.7 km/h 14.5 km/h 61% 0 mm
15:02 25.8 °C 17.8 °C 1014.8 hPa NW 8 km/h 19.3 km/h 61% 0 mm
15:07 25.8 °C 17.8 °C 1014.4 hPa WNW 11.3 km/h 16.1 km/h 61% 0 mm
15:12 26.1 °C 18.5 °C 1014.4 hPa SW 14.5 km/h 14.5 km/h 63% 0 mm
15:17 26.3 °C 17.6 °C 1014.4 hPa WSW 11.3 km/h 24.1 km/h 59% 0 mm
15:22 26.1 °C 17.7 °C 1014.4 hPa West 11.3 km/h 17.7 km/h 60% 0 mm
15:27 25.9 °C 17.3 °C 1014.1 hPa NW 16.1 km/h 16.1 km/h 59% 0 mm
15:32 25.7 °C 18.2 °C 1014.1 hPa West 9.7 km/h 12.9 km/h 63% 0 mm
15:38 25.8 °C 18 °C 1014.1 hPa West 6.4 km/h 11.3 km/h 62% 0 mm
15:43 26.1 °C 17.9 °C 1014.1 hPa West 8 km/h 17.7 km/h 61% 0 mm
15:48 25.8 °C 17.7 °C 1014.1 hPa West 8 km/h 14.5 km/h 61% 0 mm
15:53 26.2 °C 18.1 °C 1013.8 hPa West 6.4 km/h 12.9 km/h 61% 0 mm
15:58 26.1 °C 18.2 °C 1013.8 hPa WSW 8 km/h 16.1 km/h 62% 0 mm
16:03 26.1 °C 18.5 °C 1013.8 hPa WSW 6.4 km/h 17.7 km/h 63% 0 mm
16:08 26 °C 17.4 °C 1013.8 hPa WNW 8 km/h 11.3 km/h 59% 0 mm
16:13 25.9 °C 17.6 °C 1013.4 hPa WNW 12.9 km/h 12.9 km/h 60% 0 mm
16:18 26 °C 17.7 °C 1013.8 hPa NW 8 km/h 14.5 km/h 60% 0 mm
16:23 25.9 °C 17.6 °C 1013.4 hPa WNW 8 km/h 11.3 km/h 60% 0 mm
16:28 25.7 °C 17.6 °C 1013.4 hPa WNW 11.3 km/h 11.3 km/h 61% 0 mm
16:33 25.8 °C 18.3 °C 1013.4 hPa West 14.5 km/h 14.5 km/h 63% 0 mm
16:39 25.8 °C 17.8 °C 1013.4 hPa WSW 8 km/h 16.1 km/h 61% 0 mm
16:44 25.9 °C 17.8 °C 1013.4 hPa West 8 km/h 14.5 km/h 61% 0 mm
16:49 25.9 °C 17.8 °C 1013.1 hPa WSW 8 km/h 14.5 km/h 61% 0 mm
16:54 25.8 °C 17.4 °C 1013.1 hPa SW 6.4 km/h 12.9 km/h 60% 0 mm
16:58 25.9 °C 18.1 °C 1013.1 hPa WSW 14.5 km/h 14.5 km/h 62% 0 mm
16:59 25.9 °C 17.8 °C 1013.1 hPa SW 11.3 km/h 14.5 km/h 61% 0 mm
17:04 25.8 °C 17.8 °C 1013.1 hPa West 4.8 km/h 12.9 km/h 61% 0 mm
17:10 25.9 °C 18.6 °C 1013.1 hPa WNW 4.8 km/h 11.3 km/h 64% 0 mm
17:13 26 °C 17.7 °C 1013.4 hPa WNW 9.7 km/h 14.5 km/h 60% 0 mm
17:14 26 °C 17.7 °C 1013.4 hPa WNW 6.4 km/h 14.5 km/h 60% 0 mm
17:15 25.9 °C 17.8 °C 1013.4 hPa West 6.4 km/h 14.5 km/h 61% 0 mm
17:20 25.8 °C 18.3 °C 1013.4 hPa West 3.2 km/h 14.5 km/h 63% 0 mm
17:25 25.9 °C 18.1 °C 1013.1 hPa West 11.3 km/h 14.5 km/h 62% 0 mm
17:30 25.9 °C 18.9 °C 1013.1 hPa West 8 km/h 12.9 km/h 65% 0 mm
17:35 25.9 °C 18.1 °C 1013.1 hPa WSW 4.8 km/h 9.7 km/h 62% 0 mm
17:41 25.8 °C 18.8 °C 1013.1 hPa West 4.8 km/h 14.5 km/h 65% 0 mm
17:46 25.7 °C 18.4 °C 1013.1 hPa WNW 11.3 km/h 12.9 km/h 64% 0 mm
17:51 25.4 °C 18.1 °C 1012.8 hPa West 4.8 km/h 11.3 km/h 64% 0 mm
17:56 25.2 °C 18.4 °C 1012.8 hPa NW 6.4 km/h 11.3 km/h 66% 0 mm
18:01 25.2 °C 18.6 °C 1012.8 hPa West 1.6 km/h 8 km/h 67% 0 mm
18:06 25.1 °C 19 °C 1012.8 hPa WSW 3.2 km/h 6.4 km/h 69% 0 mm
18:11 25.1 °C 18.7 °C 1012.8 hPa West 3.2 km/h 8 km/h 68% 0 mm
18:16 25.2 °C 18.6 °C 1012.4 hPa NW 8 km/h 11.3 km/h 67% 0 mm
18:21 25.2 °C 18.9 °C 1012.4 hPa NW 9.7 km/h 9.7 km/h 68% 0 mm
18:26 25.3 °C 19.4 °C 1012.4 hPa WNW 6.4 km/h 11.3 km/h 70% 0 mm
18:31 25.1 °C 19 °C 1012.4 hPa WNW 6.4 km/h 12.9 km/h 69% 0 mm
18:36 24.9 °C 19.3 °C 1012.4 hPa WSW 9.7 km/h 11.3 km/h 71% 0 mm
18:41 24.7 °C 19.1 °C 1012.4 hPa WNW 11.3 km/h 17.7 km/h 71% 0 mm
18:46 24.5 °C 18.9 °C 1012.4 hPa WNW 8 km/h 16.1 km/h 71% 0 mm
18:51 24.4 °C 19.1 °C 1012.8 hPa West 6.4 km/h 12.9 km/h 72% 0 mm
18:56 24.4 °C 19.3 °C 1012.4 hPa SE 1.6 km/h 8 km/h 73% 0 mm
19:01 24.4 °C 19.2 °C 1012.4 hPa NW 6.4 km/h 9.7 km/h 73% 0 mm
19:06 24.3 °C 19.3 °C 1012.4 hPa West 4.8 km/h 8 km/h 74% 0 mm
19:11 24.2 °C 19.4 °C 1012.4 hPa WNW 3.2 km/h 6.4 km/h 75% 0 mm
19:16 24.1 °C 19.6 °C 1012.4 hPa West 4.8 km/h 4.8 km/h 76% 0 mm
19:22 24.1 °C 19.6 °C 1012.4 hPa WNW 3.2 km/h 3.2 km/h 76% 0 mm
19:27 24 °C 19.5 °C 1012.4 hPa SW 1.6 km/h 6.4 km/h 76% 0 mm
19:32 24 °C 19.5 °C 1012.4 hPa West 3.2 km/h 8 km/h 76% 0 mm
19:37 24.1 °C 19.6 °C 1012.4 hPa WNW 4.8 km/h 8 km/h 76% 0 mm
19:42 24.1 °C 19.6 °C 1012.4 hPa West 4.8 km/h 4.8 km/h 76% 0 mm
19:47 24.1 °C 19.6 °C 1012.4 hPa West 1.6 km/h 4.8 km/h 76% 0 mm
19:52 24.1 °C 19.3 °C 1012.4 hPa West 3.2 km/h 4.8 km/h 75% 0 mm
19:57 23.9 °C 19.4 °C 1012.4 hPa West 1.6 km/h 4.8 km/h 76% 0 mm
20:02 23.8 °C 19.3 °C 1012.4 hPa West 1.6 km/h 4.8 km/h 76% 0 mm
20:07 23.7 °C 19.4 °C 1012.4 hPa Calm   3.2 km/h 77% 0 mm
20:12 23.8 °C 19.5 °C 1012.8 hPa WNW 1.6 km/h 1.6 km/h 77% 0 mm
20:17 23.7 °C 19.4 °C 1012.8 hPa Calm   1.6 km/h 77% 0 mm
20:22 23.6 °C 19.5 °C 1012.8 hPa Calm   1.6 km/h 78% 0 mm
20:27 23.4 °C 19.4 °C 1012.8 hPa WSW 1.6 km/h 3.2 km/h 78% 0 mm
20:32 23.3 °C 19.7 °C 1012.4 hPa SW 1.6 km/h 1.6 km/h 80% 0 mm
20:37 23.2 °C 19.7 °C 1012.4 hPa SSW 1.6 km/h 1.6 km/h 81% 0 mm
20:42 22.9 °C 19.5 °C 1012.8 hPa South 1.6 km/h 1.6 km/h 81% 0 mm
20:47 22.8 °C 19.6 °C 1012.4 hPa SSE 3.2 km/h 4.8 km/h 82% 0 mm
20:52 22.6 °C 19.6 °C 1012.8 hPa WNW 14.5 km/h 14.5 km/h 83% 0 mm
20:57 21.3 °C 18.3 °C 1012.4 hPa North 54.7 km/h 54.7 km/h 83% 0 mm
21:03 19 °C 16.9 °C 1013.4 hPa North 17.7 km/h 25.7 km/h 88% 68.07 mm
21:08 18.3 °C 17 °C 1013.1 hPa NNW 8 km/h 16.1 km/h 92% 12.7 mm
21:13 18.2 °C 17.1 °C 1013.1 hPa NE 11.3 km/h 14.5 km/h 93% 3.56 mm
21:18 18.1 °C 16.9 °C 1013.1 hPa NNE 6.4 km/h 14.5 km/h 93% 8.89 mm
21:23 18.1 °C 16.9 °C 1013.8 hPa NNE 9.7 km/h 17.7 km/h 93% 64.77 mm
21:28 17.6 °C 16.4 °C 1013.4 hPa East 14.5 km/h 25.7 km/h 93% 70.1 mm
21:33 17.7 °C 16.6 °C 1013.4 hPa East 4.8 km/h 14.5 km/h 93% 20.32 mm
21:38 17.9 °C 16.7 °C 1013.8 hPa ESE 3.2 km/h 8 km/h 93% 6.6 mm
21:43 17.9 °C 16.8 °C 1013.8 hPa East 1.6 km/h 8 km/h 93% 2.79 mm
21:48 18 °C 17 °C 1014.1 hPa NNE 4.8 km/h 6.4 km/h 94% 3.56 mm
21:53 18.1 °C 17.1 °C 1014.8 hPa North 11.3 km/h 11.3 km/h 94% 2.03 mm
21:58 17.8 °C 16.8 °C 1015.1 hPa NNE 20.9 km/h 33.8 km/h 94% 1.27 mm
22:03 16.4 °C 15.2 °C 1014.8 hPa NE 27.4 km/h 35.4 km/h 92% 0 mm
22:08 16.2 °C 15.2 °C 1014.8 hPa NNE 22.5 km/h 24.1 km/h 94% 23.62 mm
22:13 16.2 °C 15.3 °C 1014.1 hPa NE 9.7 km/h 22.5 km/h 94% 16.26 mm
22:18 16.3 °C 15.4 °C 1014.1 hPa NE 6.4 km/h 9.7 km/h 94% 12.95 mm
22:23 16.2 °C 15.3 °C 1013.8 hPa NE 14.5 km/h 22.5 km/h 94% 3.81 mm
22:28 16.1 °C 15.1 °C 1014.1 hPa East 4.8 km/h 12.9 km/h 94% 3.05 mm
22:33 15.9 °C 14.9 °C 1013.8 hPa East 3.2 km/h 8 km/h 94% 2.79 mm
22:38 15.8 °C 14.9 °C 1013.8 hPa SE 3.2 km/h 6.4 km/h 94% 1.78 mm
22:43 15.8 °C 14.9 °C 1014.1 hPa SE 12.9 km/h 12.9 km/h 94% 1.02 mm
22:49 15.9 °C 14.9 °C 1014.1 hPa SE 8 km/h 11.3 km/h 94% 0 mm
22:54 15.9 °C 14.9 °C 1014.1 hPa ESE 9.7 km/h 12.9 km/h 94% 0 mm
22:59 15.9 °C 14.9 °C 1013.8 hPa SE 1.6 km/h 8 km/h 94% 0 mm
23:04 15.9 °C 14.9 °C 1013.8 hPa Calm     94% 0 mm
23:09 15.8 °C 14.9 °C 1014.1 hPa NW 1.6 km/h 3.2 km/h 94% 0 mm
23:14 15.8 °C 14.8 °C 1014.1 hPa NNW 3.2 km/h 4.8 km/h 94% 0 mm
23:19 15.7 °C 14.8 °C 1014.1 hPa NNW 6.4 km/h 6.4 km/h 94% 0 mm
23:24 15.7 °C 14.8 °C 1014.1 hPa NNE 6.4 km/h 9.7 km/h 94% 0 mm
23:29 15.6 °C 14.7 °C 1014.1 hPa NW 6.4 km/h 9.7 km/h 94% 0 mm
23:34 15.6 °C 14.6 °C 1014.4 hPa North 3.2 km/h 6.4 km/h 94% 0 mm
23:39 15.6 °C 14.6 °C 1014.4 hPa Calm   6.4 km/h 94% 0 mm
23:44 15.5 °C 14.6 °C 1014.4 hPa WSW 1.6 km/h 3.2 km/h 94% 0 mm
23:49 15.5 °C 14.6 °C 1014.1 hPa Calm   3.2 km/h 94% 0 mm
23:54 15.5 °C 14.6 °C 1014.1 hPa West 1.6 km/h 1.6 km/h 94% 0 mm
23:59 15.6 °C 14.6 °C 1014.4 hPa SW 3.2 km/h 4.8 km/h 94% 0 mm
Compliments of Weather Underground